Time;durP1;ratioP1;P1;durP2;ratioP2;P2;SDS_P1;SDS_P2;PMS_P1;PMS_P2;Temp;Humidity;BMP_temperature;BMP_pressure;BME280_temperature;BME280_humidity;BME280_pressure;Samples;Min_cycle;Max_cycle;Signal;HPM_P1;HPM_P2
2022/10/24 00:00:09;;;;;;;168.38;68.65;;;;;;;;;;5070946;28;20056;-76
2022/10/24 00:03:14;;;;;;;118.70;53.17;;;;;;;;;;5071911;28;20047;-76
2022/10/24 00:06:18;;;;;;;122.88;54.00;;;;;;;;;;5071689;28;20590;-76
2022/10/24 00:09:23;;;;;;;128.00;55.05;;;;;;;;;;5071521;28;20043;-76
2022/10/24 00:12:27;;;;;;;47.15;24.55;;;;;;;;;;5071504;28;20400;-76
2022/10/24 00:15:32;;;;;;;44.40;23.00;;;;;;;;;;5072158;28;20035;-74
2022/10/24 00:18:36;;;;;;;43.55;24.25;;;;;;;;;;5071371;28;20055;-73
2022/10/24 00:21:40;;;;;;;41.60;23.52;;;;;;;;;;5071411;28;20391;-73
2022/10/24 00:24:44;;;;;;;41.85;23.67;;;;;;;;;;5071430;28;20055;-73
2022/10/24 00:27:49;;;;;;;37.60;21.70;;;;;;;;;;5071384;28;20051;-73
2022/10/24 00:30:53;;;;;;;42.35;20.38;;;;;;;;;;5070800;28;20411;-73
2022/10/24 00:33:59;;;;;;;38.92;20.45;;;;;;;;;;5071615;28;20047;-75
2022/10/24 00:37:03;;;;;;;32.88;19.30;;;;;;;;;;5071106;28;20399;-75
2022/10/24 00:40:09;;;;;;;30.65;17.02;;;;;;;;;;5070866;28;20055;-75
2022/10/24 00:43:14;;;;;;;29.65;17.02;;;;;;;;;;5071405;28;20495;-76
2022/10/24 00:46:19;;;;;;;46.85;21.23;;;;;;;;;;5072704;28;20051;-76
2022/10/24 00:49:29;;;;;;;37.63;19.08;;;;;;;;;;5071371;28;20143;-76
2022/10/24 00:52:35;;;;;;;29.77;17.83;;;;;;;;;;5071849;28;20388;-76
2022/10/24 00:55:39;;;;;;;26.63;16.95;;;;;;;;;;5071116;28;20062;-75
2022/10/24 00:58:44;;;;;;;29.75;16.10;;;;;;;;;;5071398;28;20036;-76
2022/10/24 01:01:49;;;;;;;26.95;17.58;;;;;;;;;;5071093;28;20423;-76
2022/10/24 01:04:53;;;;;;;30.98;18.05;;;;;;;;;;5070552;28;20059;-75
2022/10/24 01:07:58;;;;;;;31.25;17.55;;;;;;;;;;5071045;28;20040;-75
2022/10/24 01:11:05;;;;;;;32.60;18.45;;;;;;;;;;5070623;28;20388;-76
2022/10/24 01:14:09;;;;;;;32.80;19.05;;;;;;;;;;5070908;28;20182;-75
2022/10/24 01:17:21;;;;;;;28.00;18.90;;;;;;;;;;5070942;28;20047;-75
2022/10/24 01:20:28;;;;;;;27.23;18.42;;;;;;;;;;5070682;28;20048;-76
2022/10/24 01:23:59;;;;;;;24.98;18.55;;;;;;;;;;5070510;28;20047;-76
2022/10/24 01:27:13;;;;;;;28.98;18.95;;;;;;;;;;5070912;28;20047;-75
2022/10/24 01:30:18;;;;;;;25.15;18.13;;;;;;;;;;5070708;28;20055;-76
2022/10/24 01:33:31;;;;;;;34.25;22.63;;;;;;;;;;5070433;28;20043;-75
2022/10/24 01:36:41;;;;;;;54.88;30.15;;;;;;;;;;5070868;28;20294;-76
2022/10/24 01:39:50;;;;;;;71.65;34.20;;;;;;;;;;5070522;28;20052;-76
2022/10/24 01:42:58;;;;;;;75.70;36.38;;;;;;;;;;5070255;28;20047;-76
2022/10/24 01:46:04;;;;;;;61.40;30.25;;;;;;;;;;5070859;28;20206;-75
2022/10/24 01:49:16;;;;;;;216.00;105.03;;;;;;;;;;5070897;28;20059;-76
2022/10/24 01:52:21;;;;;;;172.52;81.70;;;;;;;;;;5074294;28;20048;-75
2022/10/24 01:55:26;;;;;;;129.40;63.17;;;;;;;;;;5074398;28;20055;-75
2022/10/24 01:58:30;;;;;;;80.25;37.13;;;;;;;;;;5074364;28;20392;-76
2022/10/24 02:01:35;;;;;;;50.92;27.70;;;;;;;;;;5074208;28;20047;-76
2022/10/24 02:04:45;;;;;;;38.90;23.63;;;;;;;;;;5073267;28;20420;-76
2022/10/24 02:08:05;;;;;;;41.63;23.65;;;;;;;;;;5074169;28;20044;-73
2022/10/24 02:11:09;;;;;;;42.03;24.30;;;;;;;;;;5074076;28;20039;-73
2022/10/24 02:14:14;;;;;;;41.28;25.15;;;;;;;;;;5073698;28;20051;-73
2022/10/24 02:17:18;;;;;;;130.68;53.28;;;;;;;;;;5074098;28;20063;-76
2022/10/24 02:20:27;;;;;;;129.80;55.55;;;;;;;;;;5073914;28;20051;-75
2022/10/24 02:23:31;;;;;;;129.52;54.30;;;;;;;;;;5073847;28;20040;-76
2022/10/24 02:26:53;;;;;;;117.15;51.45;;;;;;;;;;5073855;28;20388;-76
2022/10/24 02:30:05;;;;;;;114.82;59.28;;;;;;;;;;5073530;28;20051;-75
2022/10/24 02:33:09;;;;;;;105.88;50.33;;;;;;;;;;5073585;28;20500;-75
2022/10/24 02:36:15;;;;;;;74.85;39.47;;;;;;;;;;5073292;28;20043;-76
2022/10/24 02:39:20;;;;;;;66.30;33.75;;;;;;;;;;5073592;28;20051;-75
2022/10/24 02:42:27;;;;;;;62.53;32.33;;;;;;;;;;5073605;28;20044;-75
2022/10/24 02:45:31;;;;;;;73.82;34.92;;;;;;;;;;5073736;28;20036;-75
2022/10/24 02:48:38;;;;;;;63.22;33.17;;;;;;;;;;5072481;28;20044;-76
2022/10/24 02:51:44;;;;;;;55.40;28.80;;;;;;;;;;5073205;28;20044;-76
2022/10/24 02:54:48;;;;;;;57.38;28.20;;;;;;;;;;5072224;28;20404;-75
2022/10/24 02:57:52;;;;;;;65.43;32.53;;;;;;;;;;5073078;28;20043;-76
2022/10/24 03:00:56;;;;;;;60.03;33.00;;;;;;;;;;5072068;28;20048;-76
2022/10/24 03:04:01;;;;;;;72.90;37.30;;;;;;;;;;5072796;28;20064;-76
2022/10/24 03:07:06;;;;;;;78.47;40.70;;;;;;;;;;5073197;28;20043;-76
2022/10/24 03:10:10;;;;;;;72.47;38.72;;;;;;;;;;5072827;28;20040;-76
2022/10/24 03:13:14;;;;;;;61.83;31.45;;;;;;;;;;5072624;28;20427;-76
2022/10/24 03:16:19;;;;;;;66.38;33.80;;;;;;;;;;5071898;28;20043;-75
2022/10/24 03:19:23;;;;;;;73.28;37.05;;;;;;;;;;5072734;28;20048;-75
2022/10/24 03:22:27;;;;;;;68.63;35.97;;;;;;;;;;5072936;28;20103;-76
2022/10/24 03:25:32;;;;;;;53.05;29.05;;;;;;;;;;5072705;28;20048;-75
2022/10/24 03:28:36;;;;;;;51.30;28.48;;;;;;;;;;5072516;28;20067;-75
2022/10/24 03:31:40;;;;;;;46.85;26.38;;;;;;;;;;5072324;28;20047;-76
2022/10/24 03:34:45;;;;;;;48.55;26.00;;;;;;;;;;5072568;28;20384;-76
2022/10/24 03:37:49;;;;;;;39.42;24.75;;;;;;;;;;5072496;28;20075;-75
2022/10/24 03:40:53;;;;;;;38.78;23.40;;;;;;;;;;5072187;28;20051;-75
2022/10/24 03:43:57;;;;;;;41.83;23.75;;;;;;;;;;5072350;28;20047;-76
2022/10/24 03:47:02;;;;;;;46.03;24.70;;;;;;;;;;5072104;28;20514;-75
2022/10/24 03:50:07;;;;;;;39.72;22.92;;;;;;;;;;5072065;28;20447;-75
2022/10/24 03:53:11;;;;;;;34.33;21.45;;;;;;;;;;5072023;28;20047;-75
2022/10/24 03:56:15;;;;;;;34.10;20.35;;;;;;;;;;5072155;28;20043;-75
2022/10/24 03:59:20;;;;;;;28.60;18.67;;;;;;;;;;5072055;28;20059;-75
2022/10/24 04:02:24;;;;;;;29.25;19.23;;;;;;;;;;5072131;28;20067;-75
2022/10/24 04:05:28;;;;;;;36.92;21.95;;;;;;;;;;5071661;28;20507;-75
2022/10/24 04:08:33;;;;;;;28.75;19.35;;;;;;;;;;5072150;28;20391;-75
2022/10/24 04:11:37;;;;;;;41.17;22.80;;;;;;;;;;5071699;28;20043;-75
2022/10/24 04:14:41;;;;;;;54.30;26.65;;;;;;;;;;5071830;28;20055;-75
2022/10/24 04:17:45;;;;;;;46.15;24.38;;;;;;;;;;5071810;28;20051;-75
2022/10/24 04:20:50;;;;;;;42.33;22.83;;;;;;;;;;5071426;28;20415;-75
2022/10/24 04:23:54;;;;;;;35.72;22.10;;;;;;;;;;5071590;28;20035;-75
2022/10/24 04:26:59;;;;;;;37.05;20.85;;;;;;;;;;5071294;28;20043;-76
2022/10/24 04:30:03;;;;;;;31.25;20.45;;;;;;;;;;5071070;28;20052;-75
2022/10/24 04:33:07;;;;;;;29.10;19.65;;;;;;;;;;5071119;28;20039;-75
2022/10/24 04:36:11;;;;;;;27.35;19.88;;;;;;;;;;5071136;28;20035;-76
2022/10/24 04:39:16;;;;;;;28.45;19.20;;;;;;;;;;5071067;28;20056;-75
2022/10/24 04:42:21;;;;;;;25.08;18.73;;;;;;;;;;5071142;28;20055;-75
2022/10/24 04:45:25;;;;;;;26.08;18.73;;;;;;;;;;5071020;28;20423;-76
2022/10/24 04:48:32;;;;;;;37.33;27.02;;;;;;;;;;5071210;28;20047;-76
2022/10/24 04:51:36;;;;;;;32.35;21.52;;;;;;;;;;5070910;28;20500;-76
2022/10/24 04:54:40;;;;;;;33.88;21.00;;;;;;;;;;5071070;28;20047;-75
2022/10/24 04:57:45;;;;;;;30.77;19.35;;;;;;;;;;5070830;28;20036;-76
2022/10/24 05:00:49;;;;;;;33.60;20.10;;;;;;;;;;5070805;28;20056;-76
2022/10/24 05:03:53;;;;;;;35.75;21.38;;;;;;;;;;5071032;28;20055;-76
2022/10/24 05:06:58;;;;;;;187.38;84.03;;;;;;;;;;5070790;28;20047;-76
2022/10/24 05:10:03;;;;;;;200.27;93.15;;;;;;;;;;5070993;28;20039;-75
2022/10/24 05:13:07;;;;;;;125.57;56.28;;;;;;;;;;5070786;28;20056;-75
2022/10/24 05:16:11;;;;;;;108.40;48.47;;;;;;;;;;5070874;28;20055;-75
2022/10/24 05:19:16;;;;;;;105.90;46.17;;;;;;;;;;5070975;28;20419;-75
2022/10/24 05:22:20;;;;;;;99.32;45.40;;;;;;;;;;5070111;28;20064;-75
2022/10/24 05:25:24;;;;;;;106.65;44.85;;;;;;;;;;5072769;28;20040;-66
2022/10/24 05:28:29;;;;;;;130.48;57.05;;;;;;;;;;5074609;28;20059;-67
2022/10/24 05:31:33;;;;;;;127.63;62.55;;;;;;;;;;5074329;28;20446;-66
2022/10/24 05:34:37;;;;;;;135.63;64.18;;;;;;;;;;5078584;28;20051;-66
2022/10/24 05:37:42;;;;;;;119.18;52.50;;;;;;;;;;5074561;28;20396;-66
2022/10/24 05:40:48;;;;;;;132.88;56.60;;;;;;;;;;5074639;28;20059;-66
2022/10/24 05:43:52;;;;;;;128.85;60.38;;;;;;;;;;5074263;28;20059;-64
2022/10/24 05:46:57;;;;;;;118.55;52.28;;;;;;;;;;5073974;28;20048;-66
2022/10/24 05:50:01;;;;;;;104.35;48.20;;;;;;;;;;5074368;28;20053;-66
2022/10/24 05:53:07;;;;;;;81.75;39.30;;;;;;;;;;5074240;28;20055;-67
2022/10/24 05:56:11;;;;;;;61.50;31.63;;;;;;;;;;5074346;28;20062;-66
2022/10/24 05:59:15;;;;;;;78.20;37.13;;;;;;;;;;5074257;28;20044;-64
2022/10/24 06:02:21;;;;;;;75.32;31.92;;;;;;;;;;5074173;28;20055;-66
2022/10/24 06:05:25;;;;;;;65.80;33.88;;;;;;;;;;5074268;28;20038;-64
2022/10/24 06:08:29;;;;;;;65.93;32.70;;;;;;;;;;5074020;28;20435;-66
2022/10/24 06:11:34;;;;;;;72.68;34.38;;;;;;;;;;5073910;28;20048;-64
2022/10/24 06:14:39;;;;;;;68.03;35.08;;;;;;;;;;5073996;28;20043;-65
2022/10/24 06:17:44;;;;;;;82.55;36.55;;;;;;;;;;5072957;28;20514;-67
2022/10/24 06:20:48;;;;;;;76.30;38.05;;;;;;;;;;5073216;28;20451;-65
2022/10/24 06:23:53;;;;;;;79.80;41.15;;;;;;;;;;5073304;28;20522;-66
2022/10/24 06:26:57;;;;;;;71.70;34.28;;;;;;;;;;5073774;28;20051;-66
2022/10/24 06:30:01;;;;;;;62.83;29.58;;;;;;;;;;5073590;28;20056;-66
2022/10/24 06:33:06;;;;;;;62.10;28.38;;;;;;;;;;5073338;28;20040;-66
2022/10/24 06:36:11;;;;;;;90.78;39.78;;;;;;;;;;5073533;28;20048;-65
2022/10/24 06:39:15;;;;;;;69.40;34.17;;;;;;;;;;5072402;28;20545;-67
2022/10/24 06:42:19;;;;;;;48.60;24.63;;;;;;;;;;5073376;28;20071;-66
2022/10/24 06:45:24;;;;;;;54.53;27.50;;;;;;;;;;5073198;28;20044;-64
2022/10/24 06:48:28;;;;;;;40.97;23.75;;;;;;;;;;5073167;28;20055;-63
2022/10/24 06:51:33;;;;;;;42.15;20.83;;;;;;;;;;5073228;28;20502;-64
2022/10/24 06:54:37;;;;;;;34.78;17.92;;;;;;;;;;5072688;28;20051;-66
2022/10/24 06:57:41;;;;;;;31.83;17.27;;;;;;;;;;5072735;28;20519;-67
2022/10/24 07:00:46;;;;;;;28.08;16.65;;;;;;;;;;5072939;28;20059;-67
2022/10/24 07:03:50;;;;;;;23.95;16.58;;;;;;;;;;5072685;28;20039;-65
2022/10/24 07:06:55;;;;;;;23.90;15.07;;;;;;;;;;5073037;28;20154;-66
2022/10/24 07:09:59;;;;;;;31.35;17.70;;;;;;;;;;5071684;28;20067;-66
2022/10/24 07:13:04;;;;;;;23.13;16.52;;;;;;;;;;5070939;28;20057;-66
2022/10/24 07:16:08;;;;;;;23.38;16.00;;;;;;;;;;5072724;28;20067;-66
2022/10/24 07:19:12;;;;;;;26.63;18.38;;;;;;;;;;5071766;28;20043;-66
2022/10/24 07:22:17;;;;;;;35.47;21.05;;;;;;;;;;5072100;28;20388;-68
2022/10/24 07:25:21;;;;;;;31.52;19.58;;;;;;;;;;5072254;28;20047;-65
2022/10/24 07:28:25;;;;;;;33.00;18.38;;;;;;;;;;5071387;28;20419;-67
2022/10/24 07:31:31;;;;;;;31.98;19.92;;;;;;;;;;5071381;28;20059;-65
2022/10/24 07:34:35;;;;;;;36.60;20.33;;;;;;;;;;5072014;28;20044;-65
2022/10/24 07:37:40;;;;;;;36.92;21.92;;;;;;;;;;5071994;28;20044;-64
2022/10/24 07:40:44;;;;;;;41.20;25.30;;;;;;;;;;5072069;28;20052;-65
2022/10/24 07:43:48;;;;;;;53.72;29.33;;;;;;;;;;5071040;28;20047;-65
2022/10/24 07:46:53;;;;;;;57.05;28.25;;;;;;;;;;5071610;28;20063;-65
2022/10/24 07:49:57;;;;;;;41.88;24.42;;;;;;;;;;5072095;28;20519;-64
2022/10/24 07:53:02;;;;;;;28.80;19.08;;;;;;;;;;5071674;28;20044;-64
2022/10/24 07:56:09;;;;;;;39.92;21.48;;;;;;;;;;5071993;28;20070;-64
2022/10/24 07:59:13;;;;;;;34.10;20.63;;;;;;;;;;5071656;28;20039;-64
2022/10/24 08:02:17;;;;;;;31.92;18.58;;;;;;;;;;5071923;28;20055;-66
2022/10/24 08:05:22;;;;;;;32.25;18.92;;;;;;;;;;5072109;28;20035;-66
2022/10/24 08:08:26;;;;;;;34.40;21.83;;;;;;;;;;5072112;28;20039;-66
2022/10/24 08:11:31;;;;;;;31.35;19.67;;;;;;;;;;5071510;28;20039;-66
2022/10/24 08:14:39;;;;;;;26.75;18.92;;;;;;;;;;5071493;28;20051;-66
2022/10/24 08:17:44;;;;;;;29.00;17.92;;;;;;;;;;5071647;28;20043;-64
2022/10/24 08:20:58;;;;;;;28.42;17.85;;;;;;;;;;5071195;28;20055;-66
2022/10/24 08:24:02;;;;;;;37.17;19.88;;;;;;;;;;5070640;28;20055;-67
2022/10/24 08:27:07;;;;;;;33.38;20.83;;;;;;;;;;5071213;28;20051;-67
2022/10/24 08:30:11;;;;;;;29.58;20.42;;;;;;;;;;5071115;28;20059;-66
2022/10/24 08:33:16;;;;;;;30.70;19.98;;;;;;;;;;5071227;28;20039;-66
2022/10/24 08:36:30;;;;;;;29.30;20.27;;;;;;;;;;5071172;28;20051;-64
2022/10/24 08:39:34;;;;;;;30.33;20.48;;;;;;;;;;5071342;28;20044;-67
2022/10/24 08:42:39;;;;;;;29.33;19.17;;;;;;;;;;5071374;28;20055;-67
2022/10/24 08:45:53;;;;;;;33.60;19.48;;;;;;;;;;5071118;28;20056;-66
2022/10/24 08:49:02;;;;;;;27.15;19.35;;;;;;;;;;5070943;28;20044;-67
2022/10/24 08:52:16;;;;;;;29.02;18.13;;;;;;;;;;5070680;28;20039;-66
2022/10/24 08:55:24;;;;;;;30.77;18.83;;;;;;;;;;5070903;28;20499;-66
2022/10/24 08:58:31;;;;;;;21.88;16.92;;;;;;;;;;5070539;28;20436;-66
2022/10/24 09:01:39;;;;;;;25.95;18.27;;;;;;;;;;5071155;28;20407;-66
2022/10/24 09:04:51;;;;;;;25.02;17.15;;;;;;;;;;5070900;28;20392;-67
2022/10/24 09:08:00;;;;;;;24.50;17.38;;;;;;;;;;5071137;28;20495;-65
2022/10/24 09:11:06;;;;;;;25.55;17.98;;;;;;;;;;5070750;28;20055;-65
2022/10/24 09:14:15;;;;;;;33.17;20.10;;;;;;;;;;5070633;28;20059;-65
2022/10/24 09:17:21;;;;;;;30.75;21.10;;;;;;;;;;5070474;28;20063;-64
2022/10/24 09:20:27;;;;;;;39.08;23.75;;;;;;;;;;5070772;28;20044;-64
2022/10/24 09:23:33;;;;;;;35.08;22.27;;;;;;;;;;5070360;28;20129;-67
2022/10/24 09:26:39;;;;;;;26.63;19.70;;;;;;;;;;5070356;28;20390;-67
2022/10/24 09:29:43;;;;;;;42.40;24.38;;;;;;;;;;5070356;28;20051;-67
2022/10/24 09:32:48;;;;;;;36.25;23.30;;;;;;;;;;5070365;28;20408;-67
2022/10/24 09:35:54;;;;;;;38.70;21.58;;;;;;;;;;5070962;28;20039;-67
2022/10/24 09:39:18;;;;;;;27.15;21.30;;;;;;;;;;5070387;28;20043;-66
2022/10/24 09:42:23;;;;;;;21.08;17.63;;;;;;;;;;5070096;28;20059;-66
2022/10/24 09:45:27;;;;;;;41.55;23.75;;;;;;;;;;5070502;28;20040;-67
2022/10/24 09:48:44;;;;;;;28.27;18.00;;;;;;;;;;5070843;28;20450;-67
2022/10/24 09:52:07;;;;;;;32.00;20.33;;;;;;;;;;5070375;28;20392;-67
2022/10/24 09:55:11;;;;;;;30.20;19.05;;;;;;;;;;5070223;28;20047;-66
2022/10/24 09:58:21;;;;;;;26.50;17.98;;;;;;;;;;5070273;28;20035;-66
2022/10/24 10:01:25;;;;;;;25.85;16.63;;;;;;;;;;5069772;28;20115;-66
2022/10/24 10:04:29;;;;;;;33.22;19.58;;;;;;;;;;5070114;28;20056;-66
2022/10/24 10:07:33;;;;;;;27.52;19.38;;;;;;;;;;5070343;28;20056;-67
2022/10/24 10:10:38;;;;;;;26.98;17.48;;;;;;;;;;5071534;28;20047;-68
2022/10/24 10:13:53;;;;;;;23.13;15.43;;;;;;;;;;5074212;28;20056;-68
2022/10/24 10:17:07;;;;;;;31.00;18.42;;;;;;;;;;5073710;28;20035;-67
2022/10/24 10:20:22;;;;;;;21.38;14.15;;;;;;;;;;5073957;28;20051;-67
2022/10/24 10:23:30;;;;;;;27.35;16.67;;;;;;;;;;5073251;28;20059;-68
2022/10/24 10:26:40;;;;;;;29.38;17.00;;;;;;;;;;5073541;28;20047;-67
2022/10/24 10:29:45;;;;;;;20.97;13.63;;;;;;;;;;5073271;28;20035;-64
2022/10/24 10:33:05;;;;;;;20.20;12.20;;;;;;;;;;5073338;28;20308;-65
2022/10/24 10:36:13;;;;;;;17.10;11.15;;;;;;;;;;5073465;28;20055;-65
2022/10/24 10:39:36;;;;;;;18.65;10.85;;;;;;;;;;5073449;28;20499;-68
2022/10/24 10:42:43;;;;;;;19.63;9.38;;;;;;;;;;5073342;28;20047;-67
2022/10/24 10:45:55;;;;;;;37.65;11.15;;;;;;;;;;5073352;28;20041;-68
2022/10/24 10:49:02;;;;;;;17.10;8.30;;;;;;;;;;5073337;28;20055;-68
2022/10/24 10:52:07;;;;;;;12.55;7.88;;;;;;;;;;5072896;28;20037;-68
2022/10/24 10:55:26;;;;;;;16.98;7.82;;;;;;;;;;5073283;28;20039;-68
2022/10/24 10:58:40;;;;;;;12.85;7.18;;;;;;;;;;5073381;28;20040;-65
2022/10/24 11:01:50;;;;;;;10.07;7.00;;;;;;;;;;5072579;28;20060;-67
2022/10/24 11:04:59;;;;;;;11.02;6.53;;;;;;;;;;5073118;28;20039;-67
2022/10/24 11:08:10;;;;;;;25.75;7.65;;;;;;;;;;5071912;28;20036;-65
2022/10/24 11:11:14;;;;;;;;;;;;;;;;;;5073061;28;20036;-65
2022/10/24 11:14:42;;;;;;;17.40;8.57;;;;;;;;;;5073017;28;20276;-65
2022/10/24 11:17:56;;;;;;;14.35;8.55;;;;;;;;;;5072566;28;20041;-65
2022/10/24 11:21:03;;;;;;;15.55;7.90;;;;;;;;;;5072521;28;20040;-65
2022/10/24 11:24:16;;;;;;;19.73;8.00;;;;;;;;;;5072254;28;20396;-65
2022/10/24 11:27:25;;;;;;;16.20;8.90;;;;;;;;;;5072421;28;20032;-65
2022/10/24 11:30:40;;;;;;;20.83;9.73;;;;;;;;;;5072325;28;20040;-65
2022/10/24 11:34:00;;;;;;;20.25;11.30;;;;;;;;;;5072131;28;20500;-65
2022/10/24 11:37:06;;;;;;;31.73;11.88;;;;;;;;;;5072498;28;20059;-67
2022/10/24 11:40:11;;;;;;;15.10;9.70;;;;;;;;;;5072390;28;20048;-67
2022/10/24 11:43:24;;;;;;;17.02;10.20;;;;;;;;;;5072173;28;20041;-65
2022/10/24 11:46:34;;;;;;;19.80;9.80;;;;;;;;;;5072411;28;20047;-66
2022/10/24 11:49:41;;;;;;;21.07;11.77;;;;;;;;;;5072357;28;20048;-67
2022/10/24 11:52:48;;;;;;;28.42;12.40;;;;;;;;;;5071688;28;20459;-67
2022/10/24 11:56:11;;;;;;;14.73;9.85;;;;;;;;;;5071921;28;20041;-67
2022/10/24 11:59:23;;;;;;;18.25;11.75;;;;;;;;;;5071511;28;20052;-67
2022/10/24 12:02:33;;;;;;;23.00;15.75;;;;;;;;;;5071496;28;20060;-68
2022/10/24 12:05:50;;;;;;;22.23;15.30;;;;;;;;;;5071794;28;20063;-67
2022/10/24 12:08:54;;;;;;;22.20;15.15;;;;;;;;;;5071757;28;20920;-67
2022/10/24 12:12:07;;;;;;;28.27;16.17;;;;;;;;;;5071518;28;20046;-67
2022/10/24 12:15:27;;;;;;;15.85;11.90;;;;;;;;;;5070709;28;20036;-66
2022/10/24 12:18:51;;;;;;;27.83;15.98;;;;;;;;;;5071315;28;20388;-66
2022/10/24 12:22:00;;;;;;;27.10;16.38;;;;;;;;;;5071365;28;20519;-67
2022/10/24 12:25:17;;;;;;;23.98;13.18;;;;;;;;;;5071022;28;20063;-67
2022/10/24 12:28:25;;;;;;;19.50;13.25;;;;;;;;;;5071167;28;20039;-67
2022/10/24 12:31:30;;;;;;;25.17;14.07;;;;;;;;;;5070910;28;20051;-66
2022/10/24 12:34:42;;;;;;;33.35;18.42;;;;;;;;;;5070917;28;20044;-66
2022/10/24 12:37:47;;;;;;;19.33;12.68;;;;;;;;;;5071151;28;20486;-67
2022/10/24 12:40:57;;;;;;;16.77;12.45;;;;;;;;;;5070926;28;20584;-65
2022/10/24 12:44:20;;;;;;;29.42;17.98;;;;;;;;;;5071036;28;20059;-65
2022/10/24 12:47:44;;;;;;;22.15;14.80;;;;;;;;;;5071089;28;20187;-66
2022/10/24 12:50:56;;;;;;;26.98;16.58;;;;;;;;;;5070722;28;20396;-66
2022/10/24 12:54:14;;;;;;;26.30;15.55;;;;;;;;;;5070824;28;20039;-67
2022/10/24 12:57:21;;;;;;;31.90;17.33;;;;;;;;;;5070567;28;20047;-67
2022/10/24 13:00:28;;;;;;;22.98;15.45;;;;;;;;;;5071135;28;20047;-67
2022/10/24 13:03:45;;;;;;;19.05;13.50;;;;;;;;;;5070457;28;20059;-67
2022/10/24 13:07:08;;;;;;;30.20;15.00;;;;;;;;;;5070147;28;20436;-67
2022/10/24 13:10:22;;;;;;;25.75;15.45;;;;;;;;;;5070598;28;20044;-67
2022/10/24 13:13:26;;;;;;;15.65;11.68;;;;;;;;;;5070781;28;20384;-68
2022/10/24 13:16:30;;;;;;;19.65;13.18;;;;;;;;;;5070508;28;20055;-68
2022/10/24 13:19:35;;;;;;;27.52;15.35;;;;;;;;;;5070406;28;20040;-68
2022/10/24 13:22:40;;;;;;;17.95;12.90;;;;;;;;;;5069874;28;20055;-66
2022/10/24 13:25:45;;;;;;;23.88;12.20;;;;;;;;;;5069742;28;20044;-66
2022/10/24 13:28:49;;;;;;;17.00;11.80;;;;;;;;;;5070386;28;20051;-66
2022/10/24 13:32:13;;;;;;;16.48;11.77;;;;;;;;;;5069690;28;20056;-66
2022/10/24 13:35:21;;;;;;;21.77;11.35;;;;;;;;;;5069637;28;20040;-66
2022/10/24 13:38:26;;;;;;;16.65;11.48;;;;;;;;;;5069530;28;20055;-66
2022/10/24 13:41:39;;;;;;;14.77;10.18;;;;;;;;;;5069766;28;20518;-66
2022/10/24 13:44:45;;;;;;;22.73;13.30;;;;;;;;;;5070372;28;20392;-67
2022/10/24 13:47:51;;;;;;;20.98;12.10;;;;;;;;;;5074194;28;20039;-65
2022/10/24 13:51:06;;;;;;;15.95;9.68;;;;;;;;;;5074437;28;20044;-65
2022/10/24 13:54:15;;;;;;;12.77;9.55;;;;;;;;;;5074180;28;20052;-65
2022/10/24 13:57:36;;;;;;;22.88;10.95;;;;;;;;;;5074119;28;20045;-65
2022/10/24 14:00:43;;;;;;;14.32;10.05;;;;;;;;;;5072655;28;20039;-66
2022/10/24 14:03:50;;;;;;;17.08;10.93;;;;;;;;;;5072909;28;20047;-66
2022/10/24 14:07:05;;;;;;;18.92;12.43;;;;;;;;;;5073230;28;20036;-66
2022/10/24 14:10:12;;;;;;;25.30;13.50;;;;;;;;;;5072371;28;20051;-67
2022/10/24 14:13:18;;;;;;;19.23;12.38;;;;;;;;;;5073400;28;20043;-65
2022/10/24 14:16:29;;;;;;;21.13;12.95;;;;;;;;;;5072945;28;20491;-65
2022/10/24 14:19:35;;;;;;;20.10;11.65;;;;;;;;;;5073561;28;20059;-66
2022/10/24 14:22:40;;;;;;;20.30;10.93;;;;;;;;;;5073531;28;20079;-65
2022/10/24 14:25:45;;;;;;;18.92;11.07;;;;;;;;;;5073798;28;20392;-65
2022/10/24 14:28:57;;;;;;;13.82;10.32;;;;;;;;;;5073738;28;20210;-67
2022/10/24 14:32:02;;;;;;;16.65;11.50;;;;;;;;;;5072549;28;20047;-66
2022/10/24 14:35:11;;;;;;;24.77;11.95;;;;;;;;;;5073330;28;20503;-65
2022/10/24 14:38:16;;;;;;;17.38;12.32;;;;;;;;;;5073354;28;20039;-66
2022/10/24 14:41:22;;;;;;;18.17;11.85;;;;;;;;;;5073065;28;20471;-66
2022/10/24 14:44:26;;;;;;;18.58;12.02;;;;;;;;;;5073386;28;20069;-67
2022/10/24 14:47:33;;;;;;;18.27;12.43;;;;;;;;;;5073171;28;20044;-63
2022/10/24 14:50:40;;;;;;;16.80;11.60;;;;;;;;;;5072353;28;20426;-66
2022/10/24 14:53:47;;;;;;;17.45;11.68;;;;;;;;;;5072950;28;20147;-66
2022/10/24 14:56:53;;;;;;;18.30;11.75;;;;;;;;;;5071780;28;20503;-66
2022/10/24 15:00:01;;;;;;;15.35;10.75;;;;;;;;;;5072678;28;20039;-65
2022/10/24 15:03:05;;;;;;;19.88;11.23;;;;;;;;;;5072331;28;20052;-66
2022/10/24 15:06:17;;;;;;;21.52;12.35;;;;;;;;;;5072031;28;20047;-66
2022/10/24 15:09:21;;;;;;;19.38;12.18;;;;;;;;;;5072903;28;20396;-66
2022/10/24 15:12:32;;;;;;;24.38;12.07;;;;;;;;;;5072627;28;20115;-66
2022/10/24 15:15:45;;;;;;;33.20;14.33;;;;;;;;;;5072504;28;20047;-64
2022/10/24 15:18:52;;;;;;;28.40;13.32;;;;;;;;;;5071965;28;20115;-66
2022/10/24 15:21:56;;;;;;;22.70;12.00;;;;;;;;;;5072401;28;20368;-66
2022/10/24 15:25:05;;;;;;;22.55;13.25;;;;;;;;;;5072146;28;20035;-66
2022/10/24 15:28:29;;;;;;;16.40;12.02;;;;;;;;;;5072679;28;20051;-66
2022/10/24 15:31:36;;;;;;;25.30;13.65;;;;;;;;;;5072019;28;20138;-65
2022/10/24 15:34:40;;;;;;;24.15;13.43;;;;;;;;;;5072445;28;20048;-64
2022/10/24 15:37:58;;;;;;;21.38;12.65;;;;;;;;;;5072338;28;20439;-65
2022/10/24 15:41:02;;;;;;;22.73;11.90;;;;;;;;;;5071976;28;20056;-68
2022/10/24 15:44:17;;;;;;;20.48;14.43;;;;;;;;;;5072026;28;20408;-66
2022/10/24 15:47:23;;;;;;;22.58;14.30;;;;;;;;;;5071237;28;20059;-65
2022/10/24 15:50:27;;;;;;;29.83;16.92;;;;;;;;;;5071651;28;20055;-65
2022/10/24 15:53:32;;;;;;;23.15;15.90;;;;;;;;;;5071648;28;20399;-64
2022/10/24 15:56:36;;;;;;;32.33;17.52;;;;;;;;;;5072021;28;20052;-67
2022/10/24 15:59:40;;;;;;;28.33;15.30;;;;;;;;;;5071240;28;20055;-64
2022/10/24 16:02:47;;;;;;;28.95;17.80;;;;;;;;;;5071372;28;20067;-65
2022/10/24 16:05:55;;;;;;;36.50;17.45;;;;;;;;;;5071320;28;20061;-63
2022/10/24 16:08:59;;;;;;;33.72;18.10;;;;;;;;;;5071149;28;20051;-64
2022/10/24 16:12:04;;;;;;;27.20;19.23;;;;;;;;;;5071088;28;20407;-63
2022/10/24 16:15:26;;;;;;;32.28;19.33;;;;;;;;;;5071400;28;20044;-63
2022/10/24 16:18:30;;;;;;;31.20;20.42;;;;;;;;;;5071341;28;20059;-65
2022/10/24 16:21:35;;;;;;;33.97;21.33;;;;;;;;;;5071182;28;20048;-64
2022/10/24 16:24:39;;;;;;;36.83;21.85;;;;;;;;;;5071414;28;20491;-64
2022/10/24 16:27:43;;;;;;;40.08;21.77;;;;;;;;;;5071033;28;20588;-66
2022/10/24 16:30:47;;;;;;;33.72;23.58;;;;;;;;;;5071139;28;20059;-65
2022/10/24 16:33:51;;;;;;;37.20;23.02;;;;;;;;;;5069759;28;20044;-66
2022/10/24 16:36:56;;;;;;;32.08;24.05;;;;;;;;;;5070730;28;20040;-63
2022/10/24 16:40:00;;;;;;;43.05;23.35;;;;;;;;;;5071029;28;20047;-64
2022/10/24 16:43:05;;;;;;;43.17;26.25;;;;;;;;;;5070773;28;20055;-63
2022/10/24 16:46:19;;;;;;;46.20;26.60;;;;;;;;;;5070638;28;20039;-64
2022/10/24 16:49:24;;;;;;;48.35;30.17;;;;;;;;;;5071001;28;20040;-64
2022/10/24 16:52:28;;;;;;;53.08;28.38;;;;;;;;;;5070666;28;20048;-65
2022/10/24 16:55:33;;;;;;;44.05;29.83;;;;;;;;;;5070613;28;20423;-63
2022/10/24 16:58:38;;;;;;;42.42;29.77;;;;;;;;;;5069873;28;20031;-65
2022/10/24 17:01:43;;;;;;;47.65;30.45;;;;;;;;;;5071583;28;20052;-64
2022/10/24 17:04:47;;;;;;;43.55;30.27;;;;;;;;;;5070560;28;20047;-74
2022/10/24 17:07:52;;;;;;;46.75;32.25;;;;;;;;;;5070056;28;20047;-74
2022/10/24 17:10:57;;;;;;;41.95;30.60;;;;;;;;;;5071050;28;20461;-74
2022/10/24 17:14:01;;;;;;;47.42;30.63;;;;;;;;;;5068941;28;20048;-74
2022/10/24 17:17:05;;;;;;;46.63;31.05;;;;;;;;;;5071041;28;20391;-74
2022/10/24 17:20:11;;;;;;;47.13;30.25;;;;;;;;;;5071481;28;20051;-74
2022/10/24 17:23:16;;;;;;;50.90;29.30;;;;;;;;;;5074088;28;20502;-75
2022/10/24 17:26:21;;;;;;;54.72;31.27;;;;;;;;;;5074954;28;20067;-75
2022/10/24 17:29:27;;;;;;;46.60;31.85;;;;;;;;;;5075227;28;20114;-75
2022/10/24 17:32:32;;;;;;;44.47;30.80;;;;;;;;;;5074395;28;20048;-73
2022/10/24 17:35:39;;;;;;;51.60;28.65;;;;;;;;;;5074649;28;20510;-72
2022/10/24 17:38:52;;;;;;;44.83;28.58;;;;;;;;;;5074749;28;20051;-76
2022/10/24 17:41:56;;;;;;;46.47;26.95;;;;;;;;;;5074419;28;20036;-74
2022/10/24 17:45:00;;;;;;;41.88;25.65;;;;;;;;;;5074526;28;20122;-72
2022/10/24 17:48:05;;;;;;;42.10;25.92;;;;;;;;;;5074298;28;20035;-72
2022/10/24 17:51:10;;;;;;;38.85;24.80;;;;;;;;;;5074505;28;20047;-72
2022/10/24 17:54:14;;;;;;;36.10;25.27;;;;;;;;;;5074303;28;20330;-72
2022/10/24 17:57:18;;;;;;;43.60;25.73;;;;;;;;;;5073099;28;20051;-72
2022/10/24 18:00:22;;;;;;;41.65;25.77;;;;;;;;;;5073809;28;20040;-72
2022/10/24 18:03:28;;;;;;;44.42;25.20;;;;;;;;;;5071584;28;20522;-72
2022/10/24 18:06:32;;;;;;;44.80;25.45;;;;;;;;;;5073620;28;20044;-72